sensor_id;sensor_type;location;lat;lon;timestamp;temperature;humidity
75451;DHT22;64029;48.244;9.188;2023-03-04T00:01:27;-1.20;74.50
75451;DHT22;64029;48.244;9.188;2023-03-04T00:03:54;-1.20;74.20
75451;DHT22;64029;48.244;9.188;2023-03-04T00:06:21;-1.20;74.30
75451;DHT22;64029;48.244;9.188;2023-03-04T00:08:48;-1.30;74.30
75451;DHT22;64029;48.244;9.188;2023-03-04T00:11:15;-1.30;74.20
75451;DHT22;64029;48.244;9.188;2023-03-04T00:13:42;-1.30;74.20
75451;DHT22;64029;48.244;9.188;2023-03-04T00:16:09;-1.30;74.10
75451;DHT22;64029;48.244;9.188;2023-03-04T00:18:37;-1.30;74.00
75451;DHT22;64029;48.244;9.188;2023-03-04T00:21:04;-1.40;74.00
75451;DHT22;64029;48.244;9.188;2023-03-04T00:23:31;-1.40;73.90
75451;DHT22;64029;48.244;9.188;2023-03-04T00:25:58;-1.40;74.20
75451;DHT22;64029;48.244;9.188;2023-03-04T00:28:25;-1.40;74.00
75451;DHT22;64029;48.244;9.188;2023-03-04T00:30:52;-1.40;74.00
75451;DHT22;64029;48.244;9.188;2023-03-04T00:33:19;-1.40;74.20
75451;DHT22;64029;48.244;9.188;2023-03-04T00:35:47;-1.40;74.40
75451;DHT22;64029;48.244;9.188;2023-03-04T00:38:14;-1.50;74.20
75451;DHT22;64029;48.244;9.188;2023-03-04T00:40:41;-1.50;74.30
75451;DHT22;64029;48.244;9.188;2023-03-04T00:43:08;-1.50;74.50
75451;DHT22;64029;48.244;9.188;2023-03-04T00:45:35;-1.50;74.30
75451;DHT22;64029;48.244;9.188;2023-03-04T00:48:02;-1.50;74.70
75451;DHT22;64029;48.244;9.188;2023-03-04T00:50:29;-1.50;74.50
75451;DHT22;64029;48.244;9.188;2023-03-04T00:52:57;-1.60;74.30
75451;DHT22;64029;48.244;9.188;2023-03-04T00:55:24;-1.60;74.10
75451;DHT22;64029;48.244;9.188;2023-03-04T00:57:54;-1.60;74.50
75451;DHT22;64029;48.244;9.188;2023-03-04T01:00:21;-1.60;74.30
75451;DHT22;64029;48.244;9.188;2023-03-04T01:02:48;-1.60;74.40
75451;DHT22;64029;48.244;9.188;2023-03-04T01:05:15;-1.60;74.50
75451;DHT22;64029;48.244;9.188;2023-03-04T01:07:42;-1.70;74.60
75451;DHT22;64029;48.244;9.188;2023-03-04T01:10:12;-1.70;74.60
75451;DHT22;64029;48.244;9.188;2023-03-04T01:12:39;-1.70;74.50
75451;DHT22;64029;48.244;9.188;2023-03-04T01:15:07;-1.70;74.40
75451;DHT22;64029;48.244;9.188;2023-03-04T01:17:35;-1.80;74.30
75451;DHT22;64029;48.244;9.188;2023-03-04T01:20:03;-1.80;74.50
75451;DHT22;64029;48.244;9.188;2023-03-04T01:22:30;-1.80;74.70
75451;DHT22;64029;48.244;9.188;2023-03-04T01:24:57;-1.80;74.50
75451;DHT22;64029;48.244;9.188;2023-03-04T01:27:25;-1.80;74.60
75451;DHT22;64029;48.244;9.188;2023-03-04T01:29:52;-1.90;74.60
75451;DHT22;64029;48.244;9.188;2023-03-04T01:32:19;-1.90;74.60
75451;DHT22;64029;48.244;9.188;2023-03-04T01:34:46;-1.90;74.70
75451;DHT22;64029;48.244;9.188;2023-03-04T01:37:13;-1.90;74.80
75451;DHT22;64029;48.244;9.188;2023-03-04T01:39:40;-2.00;74.30
75451;DHT22;64029;48.244;9.188;2023-03-04T01:42:12;-2.00;74.50
75451;DHT22;64029;48.244;9.188;2023-03-04T01:44:45;-2.00;75.40
75451;DHT22;64029;48.244;9.188;2023-03-04T01:47:13;-2.00;75.00
75451;DHT22;64029;48.244;9.188;2023-03-04T01:49:40;-2.00;75.00
75451;DHT22;64029;48.244;9.188;2023-03-04T01:52:10;-2.00;75.00
75451;DHT22;64029;48.244;9.188;2023-03-04T01:54:38;-2.00;75.00
75451;DHT22;64029;48.244;9.188;2023-03-04T01:57:08;-2.00;75.10
75451;DHT22;64029;48.244;9.188;2023-03-04T01:59:41;-2.00;75.30
75451;DHT22;64029;48.244;9.188;2023-03-04T02:02:09;-2.10;75.10
75451;DHT22;64029;48.244;9.188;2023-03-04T02:04:36;-2.10;75.30
75451;DHT22;64029;48.244;9.188;2023-03-04T02:07:03;-2.10;75.10
75451;DHT22;64029;48.244;9.188;2023-03-04T02:09:32;-2.10;75.00
75451;DHT22;64029;48.244;9.188;2023-03-04T02:12:00;-2.10;75.30
75451;DHT22;64029;48.244;9.188;2023-03-04T02:14:27;-2.20;75.00
75451;DHT22;64029;48.244;9.188;2023-03-04T02:16:54;-2.20;74.90
75451;DHT22;64029;48.244;9.188;2023-03-04T02:19:29;-2.20;75.00
75451;DHT22;64029;48.244;9.188;2023-03-04T02:21:57;-2.30;75.00
75451;DHT22;64029;48.244;9.188;2023-03-04T02:24:28;-2.30;75.10
75451;DHT22;64029;48.244;9.188;2023-03-04T02:26:58;-2.30;74.90
75451;DHT22;64029;48.244;9.188;2023-03-04T02:29:24;-2.30;75.50
75451;DHT22;64029;48.244;9.188;2023-03-04T02:31:53;-2.30;75.00
75451;DHT22;64029;48.244;9.188;2023-03-04T02:34:21;-2.30;74.90
75451;DHT22;64029;48.244;9.188;2023-03-04T02:36:51;-2.40;74.80
75451;DHT22;64029;48.244;9.188;2023-03-04T02:39:24;-2.40;74.80
75451;DHT22;64029;48.244;9.188;2023-03-04T02:41:54;-2.40;74.80
75451;DHT22;64029;48.244;9.188;2023-03-04T02:44:24;-2.40;74.90
75451;DHT22;64029;48.244;9.188;2023-03-04T02:46:52;-2.40;75.30
75451;DHT22;64029;48.244;9.188;2023-03-04T02:49:21;-2.40;75.20
75451;DHT22;64029;48.244;9.188;2023-03-04T02:51:50;-2.40;75.50
75451;DHT22;64029;48.244;9.188;2023-03-04T02:54:19;-2.40;75.30
75451;DHT22;64029;48.244;9.188;2023-03-04T02:56:46;-2.40;75.20
75451;DHT22;64029;48.244;9.188;2023-03-04T02:59:14;-2.50;75.20
75451;DHT22;64029;48.244;9.188;2023-03-04T03:01:42;-2.50;75.10
75451;DHT22;64029;48.244;9.188;2023-03-04T03:04:09;-2.50;74.90
75451;DHT22;64029;48.244;9.188;2023-03-04T03:06:36;-2.50;75.40
75451;DHT22;64029;48.244;9.188;2023-03-04T03:09:02;-2.60;75.40
75451;DHT22;64029;48.244;9.188;2023-03-04T03:11:29;-2.60;75.30
75451;DHT22;64029;48.244;9.188;2023-03-04T03:13:56;-2.60;75.20
75451;DHT22;64029;48.244;9.188;2023-03-04T03:16:23;-2.60;74.90
75451;DHT22;64029;48.244;9.188;2023-03-04T03:18:51;-2.70;74.70
75451;DHT22;64029;48.244;9.188;2023-03-04T03:21:18;-2.70;74.90
75451;DHT22;64029;48.244;9.188;2023-03-04T03:23:45;-2.70;74.70
75451;DHT22;64029;48.244;9.188;2023-03-04T03:26:12;-2.70;74.70
75451;DHT22;64029;48.244;9.188;2023-03-04T03:28:39;-2.80;75.00
75451;DHT22;64029;48.244;9.188;2023-03-04T03:31:06;-2.80;74.90
75451;DHT22;64029;48.244;9.188;2023-03-04T03:33:33;-2.80;75.70
75451;DHT22;64029;48.244;9.188;2023-03-04T03:36:01;-2.80;75.90
75451;DHT22;64029;48.244;9.188;2023-03-04T03:38:28;-2.80;75.20
75451;DHT22;64029;48.244;9.188;2023-03-04T03:40:55;-2.90;75.00
75451;DHT22;64029;48.244;9.188;2023-03-04T03:43:21;-2.90;75.90
75451;DHT22;64029;48.244;9.188;2023-03-04T03:45:48;-2.90;75.50
75451;DHT22;64029;48.244;9.188;2023-03-04T03:48:16;-2.90;75.40
75451;DHT22;64029;48.244;9.188;2023-03-04T03:50:43;-2.90;76.20
75451;DHT22;64029;48.244;9.188;2023-03-04T03:53:12;-2.90;75.80
75451;DHT22;64029;48.244;9.188;2023-03-04T03:55:38;-2.90;75.60
75451;DHT22;64029;48.244;9.188;2023-03-04T03:58:05;-3.00;74.90
75451;DHT22;64029;48.244;9.188;2023-03-04T04:00:32;-3.00;74.90
75451;DHT22;64029;48.244;9.188;2023-03-04T04:03:00;-3.00;75.60
75451;DHT22;64029;48.244;9.188;2023-03-04T04:05:27;-3.00;75.40
75451;DHT22;64029;48.244;9.188;2023-03-04T04:07:54;-3.00;75.70
75451;DHT22;64029;48.244;9.188;2023-03-04T04:10:22;-3.00;75.60
75451;DHT22;64029;48.244;9.188;2023-03-04T04:12:49;-3.00;75.50
75451;DHT22;64029;48.244;9.188;2023-03-04T04:15:16;-3.00;76.20
75451;DHT22;64029;48.244;9.188;2023-03-04T04:17:42;-3.00;76.40
75451;DHT22;64029;48.244;9.188;2023-03-04T04:20:10;-3.00;77.00
75451;DHT22;64029;48.244;9.188;2023-03-04T04:22:37;-3.00;75.90
75451;DHT22;64029;48.244;9.188;2023-03-04T04:25:05;-3.10;75.80
75451;DHT22;64029;48.244;9.188;2023-03-04T04:27:34;-3.10;75.70
75451;DHT22;64029;48.244;9.188;2023-03-04T04:30:02;-3.10;75.80
75451;DHT22;64029;48.244;9.188;2023-03-04T04:32:29;-3.10;75.90
75451;DHT22;64029;48.244;9.188;2023-03-04T04:34:55;-3.10;75.50
75451;DHT22;64029;48.244;9.188;2023-03-04T04:37:22;-3.10;76.00
75451;DHT22;64029;48.244;9.188;2023-03-04T04:39:49;-3.10;76.10
75451;DHT22;64029;48.244;9.188;2023-03-04T04:42:16;-3.10;76.20
75451;DHT22;64029;48.244;9.188;2023-03-04T04:44:45;-3.20;76.00
75451;DHT22;64029;48.244;9.188;2023-03-04T04:47:11;-3.20;75.90
75451;DHT22;64029;48.244;9.188;2023-03-04T04:49:38;-3.20;76.00
75451;DHT22;64029;48.244;9.188;2023-03-04T04:52:07;-3.20;76.30
75451;DHT22;64029;48.244;9.188;2023-03-04T04:54:34;-3.20;76.10
75451;DHT22;64029;48.244;9.188;2023-03-04T04:57:01;-3.20;76.00
75451;DHT22;64029;48.244;9.188;2023-03-04T04:59:28;-3.20;76.10
75451;DHT22;64029;48.244;9.188;2023-03-04T05:01:56;-3.30;75.80
75451;DHT22;64029;48.244;9.188;2023-03-04T05:04:22;-3.30;76.20
75451;DHT22;64029;48.244;9.188;2023-03-04T05:06:49;-3.30;76.00
75451;DHT22;64029;48.244;9.188;2023-03-04T05:09:16;-3.30;76.10
75451;DHT22;64029;48.244;9.188;2023-03-04T05:11:44;-3.30;76.00
75451;DHT22;64029;48.244;9.188;2023-03-04T05:14:10;-3.30;76.00
75451;DHT22;64029;48.244;9.188;2023-03-04T05:16:37;-3.30;76.30
75451;DHT22;64029;48.244;9.188;2023-03-04T05:19:06;-3.40;76.00
75451;DHT22;64029;48.244;9.188;2023-03-04T05:21:32;-3.40;75.90
75451;DHT22;64029;48.244;9.188;2023-03-04T05:23:59;-3.30;76.60
75451;DHT22;64029;48.244;9.188;2023-03-04T05:26:26;-3.40;75.90
75451;DHT22;64029;48.244;9.188;2023-03-04T05:28:53;-3.40;75.70
75451;DHT22;64029;48.244;9.188;2023-03-04T05:31:20;-3.40;75.80
75451;DHT22;64029;48.244;9.188;2023-03-04T05:33:47;-3.40;75.80
75451;DHT22;64029;48.244;9.188;2023-03-04T05:36:15;-3.40;76.00
75451;DHT22;64029;48.244;9.188;2023-03-04T05:38:41;-3.40;76.20
75451;DHT22;64029;48.244;9.188;2023-03-04T05:41:08;-3.40;76.30
75451;DHT22;64029;48.244;9.188;2023-03-04T05:43:35;-3.40;76.30
75451;DHT22;64029;48.244;9.188;2023-03-04T05:46:07;-3.50;76.10
75451;DHT22;64029;48.244;9.188;2023-03-04T05:48:34;-3.50;76.10
75451;DHT22;64029;48.244;9.188;2023-03-04T05:51:01;-3.50;76.00
75451;DHT22;64029;48.244;9.188;2023-03-04T05:53:29;-3.60;75.50
75451;DHT22;64029;48.244;9.188;2023-03-04T05:55:56;-3.60;76.30
75451;DHT22;64029;48.244;9.188;2023-03-04T05:58:24;-3.60;75.90
75451;DHT22;64029;48.244;9.188;2023-03-04T06:00:51;-3.60;75.70
75451;DHT22;64029;48.244;9.188;2023-03-04T06:03:20;-3.60;76.00
75451;DHT22;64029;48.244;9.188;2023-03-04T06:05:47;-3.70;75.80
75451;DHT22;64029;48.244;9.188;2023-03-04T06:08:14;-3.70;76.30
75451;DHT22;64029;48.244;9.188;2023-03-04T06:10:42;-3.70;75.50
75451;DHT22;64029;48.244;9.188;2023-03-04T06:13:09;-3.70;75.60
75451;DHT22;64029;48.244;9.188;2023-03-04T06:15:37;-3.70;76.60
75451;DHT22;64029;48.244;9.188;2023-03-04T06:18:04;-3.70;76.30
75451;DHT22;64029;48.244;9.188;2023-03-04T06:20:31;-3.70;76.00
75451;DHT22;64029;48.244;9.188;2023-03-04T06:22:58;-3.70;76.20
75451;DHT22;64029;48.244;9.188;2023-03-04T06:25:25;-3.70;76.40
75451;DHT22;64029;48.244;9.188;2023-03-04T06:27:53;-3.70;76.40
75451;DHT22;64029;48.244;9.188;2023-03-04T06:30:20;-3.70;76.20
75451;DHT22;64029;48.244;9.188;2023-03-04T06:32:47;-3.70;76.60
75451;DHT22;64029;48.244;9.188;2023-03-04T06:35:15;-3.70;77.30
75451;DHT22;64029;48.244;9.188;2023-03-04T06:37:43;-3.70;76.60
75451;DHT22;64029;48.244;9.188;2023-03-04T06:40:11;-3.70;77.20
75451;DHT22;64029;48.244;9.188;2023-03-04T06:42:38;-3.70;77.60
75451;DHT22;64029;48.244;9.188;2023-03-04T06:45:08;-3.70;76.70
75451;DHT22;64029;48.244;9.188;2023-03-04T06:47:35;-3.70;77.30
75451;DHT22;64029;48.244;9.188;2023-03-04T06:50:02;-3.70;77.40
75451;DHT22;64029;48.244;9.188;2023-03-04T06:52:29;-3.70;77.80
75451;DHT22;64029;48.244;9.188;2023-03-04T06:54:56;-3.70;78.10
75451;DHT22;64029;48.244;9.188;2023-03-04T06:57:23;-3.70;77.10
75451;DHT22;64029;48.244;9.188;2023-03-04T06:59:50;-3.60;77.50
75451;DHT22;64029;48.244;9.188;2023-03-04T07:02:18;-3.60;78.80
75451;DHT22;64029;48.244;9.188;2023-03-04T07:04:44;-3.60;77.50
75451;DHT22;64029;48.244;9.188;2023-03-04T07:07:11;-3.60;77.00
75451;DHT22;64029;48.244;9.188;2023-03-04T07:09:38;-3.50;77.90
75451;DHT22;64029;48.244;9.188;2023-03-04T07:12:05;-3.50;76.90
75451;DHT22;64029;48.244;9.188;2023-03-04T07:14:32;-3.50;77.20
75451;DHT22;64029;48.244;9.188;2023-03-04T07:16:59;-3.50;77.10
75451;DHT22;64029;48.244;9.188;2023-03-04T07:19:27;-3.40;77.70
75451;DHT22;64029;48.244;9.188;2023-03-04T07:21:54;-3.40;77.30
75451;DHT22;64029;48.244;9.188;2023-03-04T07:24:21;-3.40;77.40
75451;DHT22;64029;48.244;9.188;2023-03-04T07:26:47;-3.30;78.80
75451;DHT22;64029;48.244;9.188;2023-03-04T07:29:14;-3.20;78.30
75451;DHT22;64029;48.244;9.188;2023-03-04T07:31:41;-3.20;77.90
75451;DHT22;64029;48.244;9.188;2023-03-04T07:34:11;-3.20;77.70
75451;DHT22;64029;48.244;9.188;2023-03-04T07:36:41;-3.20;77.30
75451;DHT22;64029;48.244;9.188;2023-03-04T07:39:09;-3.10;78.70
75451;DHT22;64029;48.244;9.188;2023-03-04T07:41:38;-3.00;78.20
75451;DHT22;64029;48.244;9.188;2023-03-04T07:44:07;-2.90;78.00
75451;DHT22;64029;48.244;9.188;2023-03-04T07:46:34;-2.90;77.30
75451;DHT22;64029;48.244;9.188;2023-03-04T07:49:01;-2.80;78.30
75451;DHT22;64029;48.244;9.188;2023-03-04T07:51:28;-2.80;78.40
75451;DHT22;64029;48.244;9.188;2023-03-04T07:53:58;-2.70;78.20
75451;DHT22;64029;48.244;9.188;2023-03-04T07:56:28;-2.60;78.00
75451;DHT22;64029;48.244;9.188;2023-03-04T07:58:55;-2.50;78.00
75451;DHT22;64029;48.244;9.188;2023-03-04T08:01:24;-2.40;79.40
75451;DHT22;64029;48.244;9.188;2023-03-04T08:03:51;-2.30;79.10
75451;DHT22;64029;48.244;9.188;2023-03-04T08:06:19;-2.30;78.20
75451;DHT22;64029;48.244;9.188;2023-03-04T08:08:47;-2.20;78.20
75451;DHT22;64029;48.244;9.188;2023-03-04T08:11:18;-2.20;78.30
75451;DHT22;64029;48.244;9.188;2023-03-04T08:13:46;-2.10;79.10
75451;DHT22;64029;48.244;9.188;2023-03-04T08:16:13;-2.00;79.60
75451;DHT22;64029;48.244;9.188;2023-03-04T08:18:41;-1.90;80.20
75451;DHT22;64029;48.244;9.188;2023-03-04T08:21:09;-1.70;81.20
75451;DHT22;64029;48.244;9.188;2023-03-04T08:23:36;-1.60;81.20
75451;DHT22;64029;48.244;9.188;2023-03-04T08:26:08;-1.50;81.80
75451;DHT22;64029;48.244;9.188;2023-03-04T08:28:37;-1.30;82.80
75451;DHT22;64029;48.244;9.188;2023-03-04T08:31:04;-1.30;82.40
75451;DHT22;64029;48.244;9.188;2023-03-04T08:33:32;-1.10;83.00
75451;DHT22;64029;48.244;9.188;2023-03-04T08:35:59;-1.00;83.20
75451;DHT22;64029;48.244;9.188;2023-03-04T08:38:26;-0.90;83.70
75451;DHT22;64029;48.244;9.188;2023-03-04T08:40:53;-0.70;84.10
75451;DHT22;64029;48.244;9.188;2023-03-04T08:43:21;-0.70;84.40
75451;DHT22;64029;48.244;9.188;2023-03-04T08:45:50;-0.70;82.90
75451;DHT22;64029;48.244;9.188;2023-03-04T08:48:17;-0.40;85.10
75451;DHT22;64029;48.244;9.188;2023-03-04T08:50:45;-0.30;85.50
75451;DHT22;64029;48.244;9.188;2023-03-04T08:53:12;-0.10;86.20
75451;DHT22;64029;48.244;9.188;2023-03-04T08:55:40;0.00;86.10
75451;DHT22;64029;48.244;9.188;2023-03-04T08:58:08;0.20;86.70
75451;DHT22;64029;48.244;9.188;2023-03-04T09:00:38;0.30;86.20
75451;DHT22;64029;48.244;9.188;2023-03-04T09:03:07;0.40;86.70
75451;DHT22;64029;48.244;9.188;2023-03-04T09:05:34;0.50;85.80
75451;DHT22;64029;48.244;9.188;2023-03-04T09:08:01;0.50;84.60
75451;DHT22;64029;48.244;9.188;2023-03-04T09:10:27;0.50;84.70
75451;DHT22;64029;48.244;9.188;2023-03-04T09:12:54;0.50;84.40
75451;DHT22;64029;48.244;9.188;2023-03-04T09:15:21;0.70;85.30
75451;DHT22;64029;48.244;9.188;2023-03-04T09:17:48;0.80;84.90
75451;DHT22;64029;48.244;9.188;2023-03-04T09:20:16;0.90;85.00
75451;DHT22;64029;48.244;9.188;2023-03-04T09:22:44;0.90;84.20
75451;DHT22;64029;48.244;9.188;2023-03-04T09:25:13;1.00;84.60
75451;DHT22;64029;48.244;9.188;2023-03-04T09:27:40;1.10;84.10
75451;DHT22;64029;48.244;9.188;2023-03-04T09:30:08;1.10;84.50
75451;DHT22;64029;48.244;9.188;2023-03-04T09:32:35;1.30;83.90
75451;DHT22;64029;48.244;9.188;2023-03-04T09:35:02;1.30;83.50
75451;DHT22;64029;48.244;9.188;2023-03-04T09:37:30;1.40;84.10
75451;DHT22;64029;48.244;9.188;2023-03-04T09:39:57;1.50;83.20
75451;DHT22;64029;48.244;9.188;2023-03-04T09:42:26;1.50;83.50
75451;DHT22;64029;48.244;9.188;2023-03-04T09:44:54;1.60;83.20
75451;DHT22;64029;48.244;9.188;2023-03-04T09:47:22;1.60;83.20
75451;DHT22;64029;48.244;9.188;2023-03-04T09:49:54;1.80;83.00
75451;DHT22;64029;48.244;9.188;2023-03-04T09:52:32;1.80;82.40
75451;DHT22;64029;48.244;9.188;2023-03-04T09:55:09;1.90;82.60
75451;DHT22;64029;48.244;9.188;2023-03-04T09:57:51;2.00;82.30
75451;DHT22;64029;48.244;9.188;2023-03-04T10:00:21;2.10;82.40
75451;DHT22;64029;48.244;9.188;2023-03-04T10:03:11;2.00;82.50
75451;DHT22;64029;48.244;9.188;2023-03-04T10:05:43;2.00;81.50
75451;DHT22;64029;48.244;9.188;2023-03-04T10:08:30;2.00;81.70
75451;DHT22;64029;48.244;9.188;2023-03-04T10:11:01;2.10;82.10
75451;DHT22;64029;48.244;9.188;2023-03-04T10:13:34;2.20;81.00
75451;DHT22;64029;48.244;9.188;2023-03-04T10:16:05;2.30;80.80
75451;DHT22;64029;48.244;9.188;2023-03-04T10:18:37;2.30;80.80
75451;DHT22;64029;48.244;9.188;2023-03-04T10:21:12;2.40;80.70
75451;DHT22;64029;48.244;9.188;2023-03-04T10:23:43;2.40;80.60
75451;DHT22;64029;48.244;9.188;2023-03-04T10:26:12;2.40;80.90
75451;DHT22;64029;48.244;9.188;2023-03-04T10:28:40;2.50;80.00
75451;DHT22;64029;48.244;9.188;2023-03-04T10:31:14;2.50;79.80
75451;DHT22;64029;48.244;9.188;2023-03-04T10:33:42;2.50;78.90
75451;DHT22;64029;48.244;9.188;2023-03-04T10:36:24;2.50;79.50
75451;DHT22;64029;48.244;9.188;2023-03-04T10:38:57;2.50;79.80
75451;DHT22;64029;48.244;9.188;2023-03-04T10:41:28;2.60;79.80
75451;DHT22;64029;48.244;9.188;2023-03-04T10:44:01;2.70;79.90
75451;DHT22;64029;48.244;9.188;2023-03-04T10:46:29;2.70;79.00
75451;DHT22;64029;48.244;9.188;2023-03-04T10:48:55;2.70;79.10
75451;DHT22;64029;48.244;9.188;2023-03-04T10:51:25;2.70;79.70
75451;DHT22;64029;48.244;9.188;2023-03-04T10:53:58;2.80;78.70
75451;DHT22;64029;48.244;9.188;2023-03-04T10:56:35;2.90;79.10
75451;DHT22;64029;48.244;9.188;2023-03-04T10:59:38;2.80;78.70
75451;DHT22;64029;48.244;9.188;2023-03-04T11:02:21;2.80;78.80
75451;DHT22;64029;48.244;9.188;2023-03-04T11:07:39;2.90;77.90
75451;DHT22;64029;48.244;9.188;2023-03-04T11:10:10;2.90;77.20
75451;DHT22;64029;48.244;9.188;2023-03-04T11:12:40;2.90;77.10
75451;DHT22;64029;48.244;9.188;2023-03-04T11:15:20;3.00;77.80
75451;DHT22;64029;48.244;9.188;2023-03-04T11:17:51;3.00;76.40
75451;DHT22;64029;48.244;9.188;2023-03-04T11:20:27;3.00;75.70
75451;DHT22;64029;48.244;9.188;2023-03-04T11:22:56;3.00;76.30
75451;DHT22;64029;48.244;9.188;2023-03-04T11:25:30;3.10;73.90
75451;DHT22;64029;48.244;9.188;2023-03-04T11:28:02;3.10;72.90
75451;DHT22;64029;48.244;9.188;2023-03-04T11:30:40;3.10;74.30
75451;DHT22;64029;48.244;9.188;2023-03-04T11:33:20;3.20;71.50
75451;DHT22;64029;48.244;9.188;2023-03-04T11:35:56;3.40;71.30
75451;DHT22;64029;48.244;9.188;2023-03-04T11:38:30;3.30;71.50
75451;DHT22;64029;48.244;9.188;2023-03-04T11:41:03;3.40;69.00
75451;DHT22;64029;48.244;9.188;2023-03-04T11:43:34;3.40;68.20
75451;DHT22;64029;48.244;9.188;2023-03-04T11:46:15;3.40;67.60
75451;DHT22;64029;48.244;9.188;2023-03-04T11:48:50;3.40;68.80
75451;DHT22;64029;48.244;9.188;2023-03-04T11:51:23;3.50;69.00
75451;DHT22;64029;48.244;9.188;2023-03-04T11:54:02;3.40;68.60
75451;DHT22;64029;48.244;9.188;2023-03-04T11:56:38;3.50;68.60
75451;DHT22;64029;48.244;9.188;2023-03-04T11:59:31;3.50;68.80
75451;DHT22;64029;48.244;9.188;2023-03-04T12:02:18;3.50;69.30
75451;DHT22;64029;48.244;9.188;2023-03-04T12:05:22;3.50;67.00
75451;DHT22;64029;48.244;9.188;2023-03-04T12:08:12;3.50;65.60
75451;DHT22;64029;48.244;9.188;2023-03-04T12:10:48;3.60;64.50
75451;DHT22;64029;48.244;9.188;2023-03-04T12:13:41;3.50;64.70
75451;DHT22;64029;48.244;9.188;2023-03-04T12:16:24;3.50;66.00
75451;DHT22;64029;48.244;9.188;2023-03-04T12:19:04;3.50;67.10
75451;DHT22;64029;48.244;9.188;2023-03-04T12:21:49;3.60;65.70
75451;DHT22;64029;48.244;9.188;2023-03-04T12:24:38;3.70;63.20
75451;DHT22;64029;48.244;9.188;2023-03-04T12:27:15;3.70;63.10
75451;DHT22;64029;48.244;9.188;2023-03-04T12:29:50;3.60;65.30
75451;DHT22;64029;48.244;9.188;2023-03-04T12:32:25;3.60;64.70
75451;DHT22;64029;48.244;9.188;2023-03-04T12:35:02;3.70;63.80
75451;DHT22;64029;48.244;9.188;2023-03-04T12:37:43;3.70;65.00
75451;DHT22;64029;48.244;9.188;2023-03-04T12:40:26;3.70;63.10
75451;DHT22;64029;48.244;9.188;2023-03-04T12:43:22;3.80;62.90
75451;DHT22;64029;48.244;9.188;2023-03-04T12:46:01;3.80;62.50
75451;DHT22;64029;48.244;9.188;2023-03-04T12:48:31;3.80;64.50
75451;DHT22;64029;48.244;9.188;2023-03-04T12:51:16;3.90;63.40
75451;DHT22;64029;48.244;9.188;2023-03-04T12:53:53;4.00;62.40
75451;DHT22;64029;48.244;9.188;2023-03-04T12:56:25;4.00;62.90
75451;DHT22;64029;48.244;9.188;2023-03-04T12:58:53;3.90;62.90
75451;DHT22;64029;48.244;9.188;2023-03-04T13:01:24;3.90;63.80
75451;DHT22;64029;48.244;9.188;2023-03-04T13:03:58;3.90;63.20
75451;DHT22;64029;48.244;9.188;2023-03-04T13:06:37;3.90;63.50
75451;DHT22;64029;48.244;9.188;2023-03-04T13:09:14;3.90;65.40
75451;DHT22;64029;48.244;9.188;2023-03-04T13:11:50;4.00;64.50
75451;DHT22;64029;48.244;9.188;2023-03-04T13:14:32;4.00;65.00
75451;DHT22;64029;48.244;9.188;2023-03-04T13:17:01;4.00;64.80
75451;DHT22;64029;48.244;9.188;2023-03-04T13:19:46;4.00;65.20
75451;DHT22;64029;48.244;9.188;2023-03-04T13:22:34;4.10;65.20
75451;DHT22;64029;48.244;9.188;2023-03-04T13:25:27;4.10;65.60
75451;DHT22;64029;48.244;9.188;2023-03-04T13:28:22;4.10;65.20
75451;DHT22;64029;48.244;9.188;2023-03-04T13:31:11;4.10;65.40
75451;DHT22;64029;48.244;9.188;2023-03-04T13:34:02;4.10;65.70
75451;DHT22;64029;48.244;9.188;2023-03-04T13:36:33;4.10;67.00
75451;DHT22;64029;48.244;9.188;2023-03-04T13:39:02;4.10;67.40
75451;DHT22;64029;48.244;9.188;2023-03-04T13:41:31;4.10;68.10
75451;DHT22;64029;48.244;9.188;2023-03-04T13:44:34;4.20;68.20
75451;DHT22;64029;48.244;9.188;2023-03-04T13:47:08;4.20;67.00
75451;DHT22;64029;48.244;9.188;2023-03-04T13:49:36;4.20;68.20
75451;DHT22;64029;48.244;9.188;2023-03-04T13:52:36;4.20;68.00
75451;DHT22;64029;48.244;9.188;2023-03-04T13:55:33;4.20;68.50
75451;DHT22;64029;48.244;9.188;2023-03-04T13:58:01;4.30;68.80
75451;DHT22;64029;48.244;9.188;2023-03-04T14:00:28;4.30;68.60
75451;DHT22;64029;48.244;9.188;2023-03-04T14:03:12;4.30;68.90
75451;DHT22;64029;48.244;9.188;2023-03-04T14:05:40;4.30;69.00
75451;DHT22;64029;48.244;9.188;2023-03-04T14:08:17;4.30;69.10
75451;DHT22;64029;48.244;9.188;2023-03-04T14:10:44;4.30;68.70
75451;DHT22;64029;48.244;9.188;2023-03-04T14:13:19;4.30;68.90
75451;DHT22;64029;48.244;9.188;2023-03-04T14:15:53;4.30;69.20
75451;DHT22;64029;48.244;9.188;2023-03-04T14:18:21;4.40;69.10
75451;DHT22;64029;48.244;9.188;2023-03-04T14:20:51;4.40;69.70
75451;DHT22;64029;48.244;9.188;2023-03-04T14:23:25;4.40;69.70
75451;DHT22;64029;48.244;9.188;2023-03-04T14:26:05;4.40;70.30
75451;DHT22;64029;48.244;9.188;2023-03-04T14:28:32;4.40;70.00
75451;DHT22;64029;48.244;9.188;2023-03-04T14:31:00;4.30;70.00
75451;DHT22;64029;48.244;9.188;2023-03-04T14:33:28;4.20;70.30
75451;DHT22;64029;48.244;9.188;2023-03-04T14:35:59;4.20;70.50
75451;DHT22;64029;48.244;9.188;2023-03-04T14:38:28;4.20;70.70
75451;DHT22;64029;48.244;9.188;2023-03-04T14:40:59;4.20;71.00
75451;DHT22;64029;48.244;9.188;2023-03-04T14:43:28;4.20;70.90
75451;DHT22;64029;48.244;9.188;2023-03-04T14:45:59;4.10;71.00
75451;DHT22;64029;48.244;9.188;2023-03-04T14:48:29;4.10;71.00
75451;DHT22;64029;48.244;9.188;2023-03-04T14:51:00;4.00;71.20
75451;DHT22;64029;48.244;9.188;2023-03-04T14:53:28;4.10;71.30
75451;DHT22;64029;48.244;9.188;2023-03-04T14:56:00;4.00;70.70
75451;DHT22;64029;48.244;9.188;2023-03-04T14:58:28;3.90;71.00
75451;DHT22;64029;48.244;9.188;2023-03-04T15:01:13;4.00;71.30
75451;DHT22;64029;48.244;9.188;2023-03-04T15:03:41;4.00;71.50
75451;DHT22;64029;48.244;9.188;2023-03-04T15:06:17;4.00;71.40
75451;DHT22;64029;48.244;9.188;2023-03-04T15:08:45;4.00;71.20
75451;DHT22;64029;48.244;9.188;2023-03-04T15:11:20;3.90;70.90
75451;DHT22;64029;48.244;9.188;2023-03-04T15:13:49;3.80;71.70
75451;DHT22;64029;48.244;9.188;2023-03-04T15:16:18;3.80;71.30
75451;DHT22;64029;48.244;9.188;2023-03-04T15:18:55;3.70;71.10
75451;DHT22;64029;48.244;9.188;2023-03-04T15:21:35;3.80;70.90
75451;DHT22;64029;48.244;9.188;2023-03-04T15:24:07;3.70;70.80
75451;DHT22;64029;48.244;9.188;2023-03-04T15:26:37;3.70;70.90
75451;DHT22;64029;48.244;9.188;2023-03-04T15:29:12;3.60;70.10
75451;DHT22;64029;48.244;9.188;2023-03-04T15:31:39;3.60;70.30
75451;DHT22;64029;48.244;9.188;2023-03-04T15:34:11;3.60;70.80
75451;DHT22;64029;48.244;9.188;2023-03-04T15:36:40;3.60;70.50
75451;DHT22;64029;48.244;9.188;2023-03-04T15:39:09;3.60;70.80
75451;DHT22;64029;48.244;9.188;2023-03-04T15:41:38;3.50;70.50
75451;DHT22;64029;48.244;9.188;2023-03-04T15:44:05;3.60;71.10
75451;DHT22;64029;48.244;9.188;2023-03-04T15:46:32;3.60;70.70
75451;DHT22;64029;48.244;9.188;2023-03-04T15:48:59;3.50;70.80
75451;DHT22;64029;48.244;9.188;2023-03-04T15:51:29;3.50;71.20
75451;DHT22;64029;48.244;9.188;2023-03-04T15:53:58;3.40;70.50
75451;DHT22;64029;48.244;9.188;2023-03-04T15:56:28;3.30;70.80
75451;DHT22;64029;48.244;9.188;2023-03-04T15:58:56;3.30;71.10
75451;DHT22;64029;48.244;9.188;2023-03-04T16:01:24;3.30;70.70